sensor_id;sensor_type;location;lat;lon;timestamp;P1;durP1;ratioP1;P2;durP2;ratioP2
30337;SDS011;17143;51.888;5.408;2023-07-29T00:09:51;2.67;;;1.90;;
30337;SDS011;17143;51.888;5.408;2023-07-29T00:24:54;4.87;;;2.27;;
30337;SDS011;17143;51.888;5.408;2023-07-29T00:39:56;3.03;;;2.30;;
30337;SDS011;17143;51.888;5.408;2023-07-29T00:54:58;4.33;;;2.87;;
30337;SDS011;17143;51.888;5.408;2023-07-29T01:10:02;2.53;;;2.30;;
30337;SDS011;17143;51.888;5.408;2023-07-29T01:25:08;4.73;;;2.73;;
30337;SDS011;17143;51.888;5.408;2023-07-29T01:40:10;3.67;;;2.47;;
30337;SDS011;17143;51.888;5.408;2023-07-29T01:55:13;2.27;;;2.07;;
30337;SDS011;17143;51.888;5.408;2023-07-29T02:10:15;1.93;;;1.47;;
30337;SDS011;17143;51.888;5.408;2023-07-29T02:25:17;1.63;;;1.53;;
30337;SDS011;17143;51.888;5.408;2023-07-29T02:40:19;1.77;;;1.23;;
30337;SDS011;17143;51.888;5.408;2023-07-29T02:55:22;2.07;;;1.47;;
30337;SDS011;17143;51.888;5.408;2023-07-29T03:10:24;2.23;;;1.33;;
30337;SDS011;17143;51.888;5.408;2023-07-29T03:25:26;1.00;;;0.90;;
30337;SDS011;17143;51.888;5.408;2023-07-29T03:40:28;1.67;;;1.23;;
30337;SDS011;17143;51.888;5.408;2023-07-29T03:55:30;0.90;;;0.70;;
30337;SDS011;17143;51.888;5.408;2023-07-29T04:10:32;1.90;;;1.27;;
30337;SDS011;17143;51.888;5.408;2023-07-29T04:25:34;1.63;;;1.00;;
30337;SDS011;17143;51.888;5.408;2023-07-29T04:40:36;2.50;;;1.10;;
30337;SDS011;17143;51.888;5.408;2023-07-29T04:55:38;0.77;;;0.77;;
30337;SDS011;17143;51.888;5.408;2023-07-29T05:10:43;1.33;;;1.10;;
30337;SDS011;17143;51.888;5.408;2023-07-29T05:25:45;1.50;;;1.23;;
30337;SDS011;17143;51.888;5.408;2023-07-29T05:40:49;2.43;;;1.60;;
30337;SDS011;17143;51.888;5.408;2023-07-29T05:55:51;4.77;;;1.70;;
30337;SDS011;17143;51.888;5.408;2023-07-29T06:10:54;2.63;;;1.63;;
30337;SDS011;17143;51.888;5.408;2023-07-29T06:25:57;2.10;;;1.57;;
30337;SDS011;17143;51.888;5.408;2023-07-29T06:40:59;5.27;;;2.27;;
30337;SDS011;17143;51.888;5.408;2023-07-29T06:56:01;2.87;;;2.07;;
30337;SDS011;17143;51.888;5.408;2023-07-29T07:11:03;3.27;;;2.20;;
30337;SDS011;17143;51.888;5.408;2023-07-29T07:26:05;3.63;;;1.70;;
30337;SDS011;17143;51.888;5.408;2023-07-29T07:41:07;2.47;;;1.50;;
30337;SDS011;17143;51.888;5.408;2023-07-29T07:56:09;3.70;;;1.93;;
30337;SDS011;17143;51.888;5.408;2023-07-29T08:11:11;1.70;;;1.60;;
30337;SDS011;17143;51.888;5.408;2023-07-29T08:26:14;2.90;;;2.00;;
30337;SDS011;17143;51.888;5.408;2023-07-29T08:41:16;1.83;;;1.43;;
30337;SDS011;17143;51.888;5.408;2023-07-29T08:56:21;1.90;;;1.20;;
30337;SDS011;17143;51.888;5.408;2023-07-29T09:11:23;2.97;;;1.33;;
30337;SDS011;17143;51.888;5.408;2023-07-29T09:26:26;1.77;;;1.20;;
30337;SDS011;17143;51.888;5.408;2023-07-29T09:41:29;1.83;;;0.90;;
30337;SDS011;17143;51.888;5.408;2023-07-29T09:56:31;5.33;;;1.10;;
30337;SDS011;17143;51.888;5.408;2023-07-29T10:11:33;1.47;;;0.90;;
30337;SDS011;17143;51.888;5.408;2023-07-29T10:26:37;2.07;;;1.23;;
30337;SDS011;17143;51.888;5.408;2023-07-29T10:57:01;1.47;;;1.20;;
30337;SDS011;17143;51.888;5.408;2023-07-29T11:12:07;2.50;;;1.30;;
30337;SDS011;17143;51.888;5.408;2023-07-29T11:27:51;1.90;;;0.93;;
30337;SDS011;17143;51.888;5.408;2023-07-29T11:42:55;3.03;;;1.10;;
30337;SDS011;17143;51.888;5.408;2023-07-29T11:57:57;1.80;;;1.03;;
30337;SDS011;17143;51.888;5.408;2023-07-29T12:12:59;2.83;;;1.10;;
30337;SDS011;17143;51.888;5.408;2023-07-29T12:28:04;1.40;;;1.30;;
30337;SDS011;17143;51.888;5.408;2023-07-29T12:43:07;2.83;;;1.83;;
30337;SDS011;17143;51.888;5.408;2023-07-29T12:58:09;2.20;;;2.00;;
30337;SDS011;17143;51.888;5.408;2023-07-29T13:13:11;2.60;;;2.20;;
30337;SDS011;17143;51.888;5.408;2023-07-29T13:28:13;2.47;;;1.47;;
30337;SDS011;17143;51.888;5.408;2023-07-29T13:43:15;2.60;;;1.27;;
30337;SDS011;17143;51.888;5.408;2023-07-29T13:58:17;2.87;;;1.43;;
30337;SDS011;17143;51.888;5.408;2023-07-29T14:13:19;1.40;;;1.30;;
30337;SDS011;17143;51.888;5.408;2023-07-29T14:28:21;1.40;;;1.30;;
30337;SDS011;17143;51.888;5.408;2023-07-29T14:43:23;1.00;;;1.00;;
30337;SDS011;17143;51.888;5.408;2023-07-29T14:58:25;0.93;;;0.93;;
30337;SDS011;17143;51.888;5.408;2023-07-29T15:13:27;1.10;;;1.00;;
30337;SDS011;17143;51.888;5.408;2023-07-29T15:28:29;3.27;;;1.37;;
30337;SDS011;17143;51.888;5.408;2023-07-29T15:43:31;1.10;;;1.00;;
30337;SDS011;17143;51.888;5.408;2023-07-29T15:58:33;1.20;;;1.10;;
30337;SDS011;17143;51.888;5.408;2023-07-29T16:13:35;1.73;;;1.10;;
30337;SDS011;17143;51.888;5.408;2023-07-29T16:28:37;1.57;;;1.47;;
30337;SDS011;17143;51.888;5.408;2023-07-29T16:43:39;1.33;;;1.20;;
30337;SDS011;17143;51.888;5.408;2023-07-29T16:58:41;2.93;;;1.30;;
30337;SDS011;17143;51.888;5.408;2023-07-29T17:13:43;1.60;;;1.40;;
30337;SDS011;17143;51.888;5.408;2023-07-29T17:28:45;2.00;;;1.77;;
30337;SDS011;17143;51.888;5.408;2023-07-29T17:43:47;3.27;;;2.00;;
30337;SDS011;17143;51.888;5.408;2023-07-29T17:58:49;1.60;;;1.50;;
30337;SDS011;17143;51.888;5.408;2023-07-29T18:13:51;2.67;;;2.07;;
30337;SDS011;17143;51.888;5.408;2023-07-29T18:28:53;3.00;;;1.17;;
30337;SDS011;17143;51.888;5.408;2023-07-29T18:43:55;5.83;;;1.40;;
30337;SDS011;17143;51.888;5.408;2023-07-29T18:58:57;3.30;;;1.13;;
30337;SDS011;17143;51.888;5.408;2023-07-29T19:14:00;2.07;;;0.90;;
30337;SDS011;17143;51.888;5.408;2023-07-29T19:29:02;2.27;;;0.97;;
30337;SDS011;17143;51.888;5.408;2023-07-29T19:44:04;3.90;;;1.00;;
30337;SDS011;17143;51.888;5.408;2023-07-29T19:59:06;3.20;;;0.83;;
30337;SDS011;17143;51.888;5.408;2023-07-29T20:14:08;1.87;;;0.70;;
30337;SDS011;17143;51.888;5.408;2023-07-29T20:29:10;3.37;;;1.13;;
30337;SDS011;17143;51.888;5.408;2023-07-29T20:44:12;5.03;;;1.30;;
30337;SDS011;17143;51.888;5.408;2023-07-29T20:59:14;3.03;;;1.10;;
30337;SDS011;17143;51.888;5.408;2023-07-29T21:14:16;4.50;;;1.20;;
30337;SDS011;17143;51.888;5.408;2023-07-29T21:29:18;2.73;;;1.10;;
30337;SDS011;17143;51.888;5.408;2023-07-29T21:44:20;3.57;;;1.20;;
30337;SDS011;17143;51.888;5.408;2023-07-29T21:59:22;4.10;;;1.40;;
30337;SDS011;17143;51.888;5.408;2023-07-29T22:14:24;4.30;;;1.40;;
30337;SDS011;17143;51.888;5.408;2023-07-29T22:29:26;4.73;;;1.77;;
30337;SDS011;17143;51.888;5.408;2023-07-29T22:44:28;4.13;;;1.60;;
30337;SDS011;17143;51.888;5.408;2023-07-29T22:59:30;2.53;;;1.53;;
30337;SDS011;17143;51.888;5.408;2023-07-29T23:14:32;2.20;;;1.37;;
30337;SDS011;17143;51.888;5.408;2023-07-29T23:29:34;4.23;;;1.40;;
30337;SDS011;17143;51.888;5.408;2023-07-29T23:44:36;4.07;;;1.60;;
30337;SDS011;17143;51.888;5.408;2023-07-29T23:59:38;3.07;;;1.33;;
